createdAt,value
2019-03-31T00:01:07.965Z,91.80
2019-03-31T00:03:32.187Z,91.90
2019-03-31T00:06:02.479Z,93.20
2019-03-31T00:08:32.750Z,92.40
2019-03-31T00:11:03.203Z,92.90
2019-03-31T00:13:33.486Z,92.40
2019-03-31T00:16:04.227Z,93.70
2019-03-31T00:18:34.673Z,93.10
2019-03-31T00:21:05.085Z,93.50
2019-03-31T00:23:35.751Z,93.50
2019-03-31T00:26:05.966Z,93.90
2019-03-31T00:28:36.246Z,93.80
2019-03-31T00:31:21.242Z,94.10
2019-03-31T00:33:39.308Z,94.00
2019-03-31T00:36:09.591Z,95.10
2019-03-31T00:38:39.864Z,95.20
2019-03-31T00:41:10.401Z,94.90
2019-03-31T00:43:40.916Z,94.60
2019-03-31T00:46:11.191Z,95.10
2019-03-31T00:48:41.468Z,95.80
2019-03-31T00:51:11.738Z,95.80
2019-03-31T00:53:42.003Z,96.70
2019-03-31T00:56:12.270Z,95.50
2019-03-31T00:58:42.781Z,96.60
2019-03-31T01:01:35.401Z,96.60
2019-03-31T01:03:53.661Z,96.30
2019-03-31T01:06:25.184Z,96.60
2019-03-31T01:08:57.438Z,96.70
2019-03-31T01:11:28.551Z,96.70
2019-03-31T01:13:59.354Z,97.40
2019-03-31T01:16:31.991Z,96.80
2019-03-31T01:19:02.263Z,96.90
2019-03-31T01:21:32.537Z,97.20
2019-03-31T01:24:03.127Z,97.40
2019-03-31T01:26:33.740Z,97.00
2019-03-31T01:29:04.580Z,98.10
2019-03-31T01:31:49.429Z,97.00
2019-03-31T01:34:07.950Z,97.30
2019-03-31T01:36:38.294Z,97.80
2019-03-31T01:39:11.251Z,98.20
2019-03-31T01:41:41.750Z,98.50
2019-03-31T01:44:12.047Z,98.50
2019-03-31T01:46:42.305Z,98.40
2019-03-31T01:49:12.896Z,99.00
2019-03-31T01:51:43.261Z,99.70
2019-03-31T01:54:13.531Z,99.10
2019-03-31T01:56:44.969Z,99.00
2019-03-31T01:59:15.610Z,99.00
2019-03-31T02:01:46.752Z,98.40
2019-03-31T02:04:17.332Z,99.00
2019-03-31T02:06:48.159Z,98.90
2019-03-31T02:09:18.557Z,98.70
2019-03-31T02:11:49.124Z,98.20
2019-03-31T02:14:19.468Z,98.80
2019-03-31T02:16:49.739Z,98.30
2019-03-31T02:19:20.008Z,99.50
2019-03-31T02:21:50.623Z,98.40
2019-03-31T02:24:22.077Z,98.70
2019-03-31T02:26:52.342Z,99.30
2019-03-31T02:29:22.763Z,99.80
2019-03-31T02:31:53.052Z,99.90
2019-03-31T02:34:23.295Z,99.60
2019-03-31T02:36:53.568Z,99.90
2019-03-31T02:39:24.272Z,99.90
2019-03-31T02:41:54.604Z,99.50
2019-03-31T02:44:24.886Z,99.30
2019-03-31T02:46:55.132Z,99.60
2019-03-31T02:49:25.400Z,99.60
2019-03-31T02:51:55.669Z,99.70
2019-03-31T02:54:26.008Z,99.70
2019-03-31T02:56:56.908Z,99.80
2019-03-31T02:59:29.370Z,99.90
2019-03-31T03:02:01.810Z,99.90
2019-03-31T03:04:35.821Z,99.90
2019-03-31T03:07:07.926Z,99.90
2019-03-31T03:09:40.478Z,99.90
2019-03-31T03:12:11.455Z,99.90
2019-03-31T03:14:43.496Z,99.90
2019-03-31T03:17:13.764Z,99.90
2019-03-31T03:19:44.014Z,99.90
2019-03-31T03:22:14.278Z,99.90
2019-03-31T03:24:44.538Z,99.90
2019-03-31T03:27:14.818Z,99.90
2019-03-31T03:29:45.086Z,99.90
2019-03-31T03:32:15.662Z,99.90
2019-03-31T03:34:45.930Z,99.90
2019-03-31T03:37:16.203Z,99.90
2019-03-31T03:39:46.459Z,99.90
2019-03-31T03:42:17.060Z,99.90
2019-03-31T03:44:47.326Z,99.90
2019-03-31T03:47:17.599Z,99.90
2019-03-31T03:49:47.863Z,99.90
2019-03-31T03:52:18.135Z,99.90
2019-03-31T03:54:48.395Z,99.90
2019-03-31T03:57:18.669Z,99.90
2019-03-31T03:59:48.930Z,99.90
2019-03-31T04:02:19.270Z,99.90
2019-03-31T04:04:49.539Z,99.90
2019-03-31T04:07:21.227Z,99.90
2019-03-31T04:09:51.492Z,99.90
2019-03-31T04:12:22.076Z,99.90
2019-03-31T04:14:52.604Z,99.90
2019-03-31T04:17:23.153Z,99.90
2019-03-31T04:19:53.667Z,99.90
2019-03-31T04:22:23.936Z,99.90
2019-03-31T04:24:54.207Z,99.90
2019-03-31T04:27:24.472Z,99.90
2019-03-31T04:29:54.733Z,99.90
2019-03-31T04:32:25.016Z,99.90
2019-03-31T04:34:55.276Z,99.90
2019-03-31T04:37:25.544Z,99.90
2019-03-31T04:39:55.801Z,99.90
2019-03-31T04:42:26.069Z,99.90
2019-03-31T04:44:56.337Z,99.90
2019-03-31T04:47:26.613Z,99.90
2019-03-31T04:49:58.003Z,99.90
2019-03-31T04:52:28.499Z,99.90
2019-03-31T04:54:58.819Z,99.90
2019-03-31T04:57:29.042Z,99.90
2019-03-31T04:59:59.379Z,99.90
2019-03-31T05:02:29.643Z,99.90
2019-03-31T05:04:59.915Z,99.90
2019-03-31T05:07:30.176Z,99.90
2019-03-31T05:10:00.465Z,99.90
2019-03-31T05:12:30.712Z,99.90
2019-03-31T05:15:01.509Z,99.90
2019-03-31T05:17:31.776Z,99.90
2019-03-31T05:20:02.061Z,99.90
2019-03-31T05:22:32.328Z,99.90
2019-03-31T05:25:02.669Z,99.90
2019-03-31T05:27:32.937Z,99.90
2019-03-31T05:30:04.182Z,99.90
2019-03-31T05:32:35.179Z,99.90
2019-03-31T05:35:06.448Z,99.90
2019-03-31T05:37:50.341Z,99.90
2019-03-31T05:40:09.122Z,99.90
2019-03-31T05:42:39.630Z,99.90
2019-03-31T05:45:10.026Z,99.90
2019-03-31T05:47:40.308Z,99.90
2019-03-31T05:50:10.942Z,99.90
2019-03-31T05:52:41.211Z,99.90
2019-03-31T05:55:11.487Z,99.90
2019-03-31T05:57:41.776Z,99.90
2019-03-31T06:00:12.478Z,99.90
2019-03-31T06:02:42.731Z,99.90
2019-03-31T06:05:13.101Z,99.90
2019-03-31T06:07:43.348Z,99.90
2019-03-31T06:10:13.624Z,99.90
2019-03-31T06:12:44.206Z,99.90
2019-03-31T06:15:14.477Z,99.90
2019-03-31T06:17:44.883Z,99.90
2019-03-31T06:20:15.154Z,99.90
2019-03-31T06:22:45.433Z,99.90
2019-03-31T06:25:15.702Z,99.90
2019-03-31T06:27:45.973Z,99.90
2019-03-31T06:30:16.551Z,99.90
2019-03-31T06:32:46.819Z,99.90
2019-03-31T06:35:17.092Z,99.90
2019-03-31T06:37:47.359Z,99.90
2019-03-31T06:40:17.631Z,99.90
2019-03-31T06:42:47.928Z,99.90
2019-03-31T06:45:18.201Z,99.90
2019-03-31T06:47:48.483Z,99.90
2019-03-31T06:50:19.586Z,99.90
2019-03-31T06:52:49.875Z,99.90
2019-03-31T06:55:20.155Z,99.90
2019-03-31T06:57:50.432Z,99.90
2019-03-31T07:00:22.118Z,99.90
2019-03-31T07:02:53.524Z,99.90
2019-03-31T07:05:24.081Z,99.90
2019-03-31T07:07:54.360Z,99.90
2019-03-31T07:10:24.652Z,99.90
2019-03-31T07:12:55.006Z,99.80
2019-03-31T07:15:25.221Z,99.90
2019-03-31T07:17:55.502Z,99.90
2019-03-31T07:20:26.045Z,99.40
2019-03-31T07:22:56.334Z,98.30
2019-03-31T07:25:26.618Z,97.60
2019-03-31T07:27:56.903Z,97.10
2019-03-31T07:30:27.182Z,96.80
2019-03-31T07:32:57.474Z,96.30
2019-03-31T07:35:27.890Z,96.10
2019-03-31T07:37:58.420Z,95.60
2019-03-31T07:40:29.251Z,95.80
2019-03-31T07:42:59.844Z,95.10
2019-03-31T07:45:31.140Z,96.40
2019-03-31T07:48:01.495Z,95.10
2019-03-31T07:50:31.784Z,94.90
2019-03-31T07:53:02.063Z,99.10
2019-03-31T07:55:32.350Z,99.90
2019-03-31T07:58:02.877Z,99.20
2019-03-31T08:00:33.247Z,92.80
2019-03-31T08:03:03.528Z,93.40
2019-03-31T08:05:37.457Z,92.70
2019-03-31T08:08:06.204Z,92.80
2019-03-31T08:10:38.036Z,93.50
2019-03-31T08:13:11.468Z,91.50
2019-03-31T08:15:42.203Z,92.80
2019-03-31T08:18:12.495Z,92.90
2019-03-31T08:20:42.806Z,92.50
2019-03-31T08:23:13.097Z,93.10
2019-03-31T08:25:43.395Z,93.40
2019-03-31T08:28:13.679Z,93.30
2019-03-31T08:30:44.033Z,93.00
2019-03-31T08:33:14.323Z,92.80
2019-03-31T08:35:47.544Z,92.10
2019-03-31T08:38:17.271Z,91.70
2019-03-31T08:40:47.630Z,91.20
2019-03-31T08:43:17.979Z,90.40
2019-03-31T08:45:48.546Z,90.40
2019-03-31T08:48:18.838Z,90.70
2019-03-31T08:50:49.195Z,90.50
2019-03-31T08:53:19.635Z,90.80
2019-03-31T08:55:50.258Z,88.10
2019-03-31T08:58:20.539Z,88.10
2019-03-31T09:00:55.407Z,90.00
2019-03-31T09:03:25.966Z,89.80
2019-03-31T09:06:02.286Z,86.20
2019-03-31T09:08:28.255Z,86.00
2019-03-31T09:10:58.651Z,85.00
2019-03-31T09:13:29.410Z,86.80
2019-03-31T09:15:59.832Z,84.60
2019-03-31T09:18:30.146Z,83.60
2019-03-31T09:21:00.645Z,82.60
2019-03-31T09:23:37.227Z,80.10
2019-03-31T09:26:07.512Z,80.10
2019-03-31T09:28:38.169Z,80.40
2019-03-31T09:31:08.462Z,77.30
2019-03-31T09:33:39.522Z,75.90
2019-03-31T09:36:16.287Z,77.20
2019-03-31T09:38:42.078Z,74.00
2019-03-31T09:41:12.372Z,73.70
2019-03-31T09:43:43.803Z,72.30
2019-03-31T09:46:14.091Z,71.10
2019-03-31T09:48:44.393Z,68.80
2019-03-31T09:51:15.146Z,69.20
2019-03-31T09:53:46.948Z,67.30
2019-03-31T09:56:17.872Z,66.30
2019-03-31T09:58:48.680Z,66.80
2019-03-31T10:01:18.973Z,66.10
2019-03-31T10:03:49.246Z,66.90
2019-03-31T10:06:29.628Z,66.70
2019-03-31T10:08:51.583Z,66.80
2019-03-31T10:11:22.182Z,65.80
2019-03-31T10:13:52.463Z,65.00
2019-03-31T10:16:22.751Z,66.60
2019-03-31T10:18:53.085Z,63.80
2019-03-31T10:21:23.690Z,65.30
2019-03-31T10:23:54.073Z,64.10
2019-03-31T10:26:31.724Z,62.30
2019-03-31T10:28:56.777Z,62.30
2019-03-31T10:31:27.051Z,61.50
2019-03-31T10:33:57.337Z,62.20
2019-03-31T10:36:27.618Z,59.70
2019-03-31T10:38:57.912Z,60.90
2019-03-31T10:41:30.819Z,61.40
2019-03-31T10:44:00.178Z,61.70
2019-03-31T10:46:30.466Z,60.50
2019-03-31T10:49:00.767Z,60.10
2019-03-31T10:51:31.122Z,60.10
2019-03-31T10:54:04.462Z,59.60
2019-03-31T10:56:35.004Z,59.80
2019-03-31T10:59:05.658Z,59.60
2019-03-31T11:01:35.955Z,58.30
2019-03-31T11:04:06.253Z,57.00
2019-03-31T11:06:36.537Z,56.60
2019-03-31T11:09:07.442Z,55.20
2019-03-31T11:11:37.726Z,55.10
2019-03-31T11:14:08.022Z,54.20
2019-03-31T11:16:38.310Z,53.70
2019-03-31T11:19:08.598Z,52.80
2019-03-31T11:21:40.691Z,52.60
2019-03-31T11:24:11.834Z,52.30
2019-03-31T11:26:43.260Z,50.30
2019-03-31T11:29:13.612Z,51.00
2019-03-31T11:31:43.908Z,48.70
2019-03-31T11:34:14.214Z,51.10
2019-03-31T11:36:44.577Z,51.70
2019-03-31T11:39:16.447Z,49.20
2019-03-31T11:41:46.939Z,49.30
2019-03-31T11:44:17.230Z,48.70
2019-03-31T11:46:47.519Z,49.90
2019-03-31T11:49:17.807Z,51.10
2019-03-31T11:51:48.390Z,49.70
2019-03-31T11:54:18.910Z,51.40
2019-03-31T11:56:49.218Z,53.00
2019-03-31T11:59:20.952Z,52.70
2019-03-31T12:01:51.491Z,53.40
2019-03-31T12:04:21.762Z,54.20
2019-03-31T12:06:52.053Z,53.60
2019-03-31T12:09:22.343Z,54.60
2019-03-31T12:11:53.055Z,55.00
2019-03-31T12:14:23.347Z,54.70
2019-03-31T12:16:53.876Z,55.60
2019-03-31T12:19:24.230Z,54.70
2019-03-31T12:21:54.470Z,54.10
2019-03-31T12:24:24.760Z,52.20
2019-03-31T12:26:55.071Z,50.30
2019-03-31T12:29:25.351Z,48.90
2019-03-31T12:31:55.911Z,50.90
2019-03-31T12:34:26.191Z,49.60
2019-03-31T12:36:56.488Z,51.40
2019-03-31T12:39:26.772Z,52.30
2019-03-31T12:41:57.065Z,50.20
2019-03-31T12:44:27.346Z,51.20
2019-03-31T12:46:57.976Z,50.20
2019-03-31T12:49:28.268Z,50.30
2019-03-31T12:51:58.568Z,51.70
2019-03-31T12:54:28.864Z,53.20
2019-03-31T12:56:59.148Z,53.80
2019-03-31T12:59:29.456Z,53.70
2019-03-31T13:01:59.739Z,55.90
2019-03-31T13:04:30.023Z,55.10
2019-03-31T13:07:00.315Z,55.60
2019-03-31T13:09:30.610Z,55.40
2019-03-31T13:12:00.968Z,56.50
2019-03-31T13:14:31.274Z,58.00
2019-03-31T13:17:01.866Z,57.40
2019-03-31T13:19:32.170Z,56.80
2019-03-31T13:22:02.526Z,55.80
2019-03-31T13:24:33.155Z,56.50
2019-03-31T13:27:03.434Z,57.10
2019-03-31T13:29:33.725Z,56.90
2019-03-31T13:32:04.103Z,56.70
2019-03-31T13:34:34.818Z,56.50
2019-03-31T13:37:05.390Z,56.30
2019-03-31T13:39:35.918Z,53.20
2019-03-31T13:42:06.271Z,51.50
2019-03-31T13:44:36.562Z,51.40
2019-03-31T13:47:06.859Z,50.80
2019-03-31T13:49:37.532Z,49.70
2019-03-31T13:52:08.066Z,48.80
2019-03-31T13:54:38.496Z,49.40
2019-03-31T13:57:09.865Z,48.90
2019-03-31T13:59:40.971Z,50.80
2019-03-31T14:02:11.604Z,53.00
2019-03-31T14:04:51.428Z,52.90
2019-03-31T14:07:13.883Z,53.40
2019-03-31T14:09:44.167Z,52.00
2019-03-31T14:12:14.455Z,51.80
2019-03-31T14:14:44.747Z,52.60
2019-03-31T14:17:15.040Z,53.10
2019-03-31T14:19:45.329Z,53.70
2019-03-31T14:22:16.195Z,54.30
2019-03-31T14:24:46.710Z,54.70
2019-03-31T14:27:17.317Z,54.20
2019-03-31T14:29:47.605Z,54.30
2019-03-31T14:32:17.890Z,54.30
2019-03-31T14:34:48.179Z,55.00
2019-03-31T14:37:18.460Z,55.80
2019-03-31T14:39:49.030Z,56.00
2019-03-31T14:42:19.314Z,57.40
2019-03-31T14:44:49.604Z,55.90
2019-03-31T14:47:19.899Z,56.10
2019-03-31T14:49:50.264Z,58.10
2019-03-31T14:52:27.149Z,59.20
2019-03-31T14:54:55.744Z,59.60
2019-03-31T14:57:24.560Z,60.90
2019-03-31T14:59:54.849Z,60.30
2019-03-31T15:02:25.145Z,61.00
2019-03-31T15:04:55.426Z,62.50
2019-03-31T15:07:26.110Z,63.80
2019-03-31T15:09:56.386Z,65.00
2019-03-31T15:12:26.940Z,65.90
2019-03-31T15:14:57.245Z,67.80
2019-03-31T15:17:27.531Z,67.60
2019-03-31T15:19:57.822Z,68.80
2019-03-31T15:22:28.103Z,69.30
2019-03-31T15:24:58.397Z,70.30
2019-03-31T15:27:28.683Z,70.70
2019-03-31T15:29:58.994Z,70.70
2019-03-31T15:32:29.273Z,70.90
2019-03-31T15:34:59.858Z,70.80
2019-03-31T15:37:30.385Z,71.60
2019-03-31T15:40:00.681Z,72.40
2019-03-31T15:42:30.975Z,72.90
2019-03-31T15:45:01.262Z,73.00
2019-03-31T15:47:31.546Z,74.00
2019-03-31T15:50:03.031Z,74.10
2019-03-31T15:52:33.542Z,74.40
2019-03-31T15:55:06.436Z,74.70
2019-03-31T15:57:36.790Z,74.50
2019-03-31T16:00:09.655Z,75.20
2019-03-31T16:02:40.109Z,74.90
2019-03-31T16:05:12.722Z,74.60
2019-03-31T16:07:47.774Z,75.30
2019-03-31T16:10:18.203Z,74.70
2019-03-31T16:12:48.496Z,74.40
2019-03-31T16:15:19.127Z,73.90
2019-03-31T16:17:49.407Z,74.20
2019-03-31T16:20:19.964Z,73.80
2019-03-31T16:22:50.240Z,73.30
2019-03-31T16:25:28.166Z,72.90
2019-03-31T16:27:58.519Z,73.30
2019-03-31T16:30:29.185Z,72.30
2019-03-31T16:32:59.472Z,72.70
2019-03-31T16:35:29.764Z,72.70
2019-03-31T16:38:00.048Z,73.00
2019-03-31T16:40:30.347Z,73.30
2019-03-31T16:43:00.631Z,73.10
2019-03-31T16:45:30.932Z,73.20
2019-03-31T16:48:01.217Z,73.40
2019-03-31T16:50:31.503Z,74.10
2019-03-31T16:53:02.189Z,74.30
2019-03-31T16:55:32.496Z,74.60
2019-03-31T16:58:02.789Z,75.60
2019-03-31T17:00:33.990Z,75.50
2019-03-31T17:03:04.349Z,76.00
2019-03-31T17:05:34.632Z,76.20
2019-03-31T17:08:04.946Z,77.10
2019-03-31T17:10:35.224Z,76.20
2019-03-31T17:13:05.528Z,77.10
2019-03-31T17:15:35.811Z,77.80
2019-03-31T17:18:06.122Z,77.30
2019-03-31T17:20:36.408Z,77.50
2019-03-31T17:23:06.745Z,78.10
2019-03-31T17:25:37.022Z,78.60
2019-03-31T17:28:10.020Z,78.20
2019-03-31T17:30:39.300Z,78.90
2019-03-31T17:33:09.917Z,79.60
2019-03-31T17:35:40.210Z,80.00
2019-03-31T17:38:10.492Z,80.30
2019-03-31T17:40:40.789Z,81.90
2019-03-31T17:43:11.313Z,81.90
2019-03-31T17:45:41.606Z,81.80
2019-03-31T17:48:11.927Z,83.00
2019-03-31T17:50:42.223Z,83.50
2019-03-31T17:53:12.511Z,83.80
2019-03-31T17:55:43.012Z,83.80
2019-03-31T17:58:13.282Z,84.40
2019-03-31T18:00:43.810Z,84.50
2019-03-31T18:03:15.737Z,84.20
2019-03-31T18:05:46.197Z,85.00
2019-03-31T18:08:16.471Z,85.20
2019-03-31T18:10:46.785Z,85.60
2019-03-31T18:13:17.357Z,86.40
2019-03-31T18:15:47.645Z,87.00
2019-03-31T18:18:18.175Z,87.20
2019-03-31T18:20:48.767Z,87.10
2019-03-31T18:23:19.142Z,88.00
2019-03-31T18:25:49.430Z,88.10
2019-03-31T18:28:21.763Z,88.40
2019-03-31T18:30:52.569Z,88.80
2019-03-31T18:33:22.879Z,89.00
2019-03-31T18:35:53.189Z,89.30
2019-03-31T18:38:23.786Z,88.10
2019-03-31T18:40:54.111Z,88.00
2019-03-31T18:43:24.403Z,88.10
2019-03-31T18:45:54.701Z,88.60
2019-03-31T18:48:24.980Z,89.20
2019-03-31T18:50:55.518Z,89.20
2019-03-31T18:53:30.385Z,89.70
2019-03-31T18:56:18.112Z,89.80
2019-03-31T18:58:52.745Z,89.80
2019-03-31T19:01:24.975Z,89.90
2019-03-31T19:04:12.945Z,90.10
2019-03-31T19:06:50.803Z,89.70
2019-03-31T19:09:25.436Z,89.40
2019-03-31T19:11:57.604Z,89.40
2019-03-31T19:14:35.315Z,89.40
2019-03-31T19:17:22.115Z,89.80
2019-03-31T19:19:54.069Z,90.00
2019-03-31T19:22:26.950Z,89.90
2019-03-31T19:24:59.866Z,90.00
2019-03-31T19:27:32.762Z,90.00
2019-03-31T19:30:19.482Z,90.00
2019-03-31T19:32:54.168Z,90.10
2019-03-31T19:35:33.555Z,90.20
2019-03-31T19:38:08.353Z,90.20
2019-03-31T19:41:04.258Z,90.20
2019-03-31T19:43:43.659Z,90.20
2019-03-31T19:46:24.536Z,90.30
2019-03-31T19:48:56.689Z,90.20
2019-03-31T19:51:44.743Z,90.10
2019-03-31T19:54:19.698Z,90.00
2019-03-31T19:56:54.336Z,90.00
2019-03-31T19:59:32.158Z,90.10
2019-03-31T20:02:25.156Z,90.20
2019-03-31T20:04:56.119Z,90.20
2019-03-31T20:07:44.104Z,90.10
2019-03-31T20:10:22.264Z,90.40
2019-03-31T20:13:10.500Z,90.20
2019-03-31T20:15:56.113Z,90.60
2019-03-31T20:18:44.998Z,90.50
2019-03-31T20:21:32.342Z,90.50
2019-03-31T20:24:02.704Z,90.50
2019-03-31T20:26:43.781Z,90.50
2019-03-31T20:29:21.637Z,91.00
2019-03-31T20:31:56.128Z,90.90
2019-03-31T20:34:30.844Z,90.80
2019-03-31T20:37:17.577Z,91.20
2019-03-31T20:40:07.095Z,90.90
2019-03-31T20:42:55.342Z,91.10
2019-03-31T20:45:25.617Z,91.10
2019-03-31T20:47:55.941Z,91.40
2019-03-31T20:50:26.245Z,91.10
2019-03-31T20:52:56.561Z,91.10
2019-03-31T20:55:26.834Z,91.00
2019-03-31T20:57:57.210Z,91.20
2019-03-31T21:00:27.482Z,91.20
2019-03-31T21:02:57.796Z,91.20
2019-03-31T21:05:28.380Z,91.20
2019-03-31T21:07:58.670Z,91.20
2019-03-31T21:10:28.969Z,91.10
2019-03-31T21:12:59.249Z,91.30
2019-03-31T21:15:29.565Z,91.20
2019-03-31T21:18:03.227Z,91.20
2019-03-31T21:20:36.375Z,91.60
2019-03-31T21:23:06.658Z,91.50
2019-03-31T21:25:37.036Z,91.60
2019-03-31T21:28:07.367Z,91.60
2019-03-31T21:30:38.815Z,91.70
2019-03-31T21:33:09.082Z,91.80
2019-03-31T21:35:39.417Z,92.00
2019-03-31T21:38:09.682Z,92.20
2019-03-31T21:40:40.004Z,92.40
2019-03-31T21:43:10.284Z,92.40
2019-03-31T21:45:40.800Z,92.40
2019-03-31T21:48:11.069Z,92.50
2019-03-31T21:50:41.364Z,92.70
2019-03-31T21:53:11.733Z,92.60
2019-03-31T21:55:42.005Z,93.10
2019-03-31T21:58:12.292Z,93.10
2019-03-31T22:00:50.567Z,93.10
2019-03-31T22:03:21.177Z,93.20
2019-03-31T22:05:51.467Z,93.30
2019-03-31T22:08:21.738Z,93.20
2019-03-31T22:10:52.162Z,93.30
2019-03-31T22:13:22.442Z,93.40
2019-03-31T22:15:52.795Z,93.50
2019-03-31T22:18:23.769Z,93.60
2019-03-31T22:20:54.061Z,93.70
2019-03-31T22:23:24.443Z,93.70
2019-03-31T22:25:54.673Z,93.90
2019-03-31T22:28:24.964Z,93.80
2019-03-31T22:30:55.225Z,93.80
2019-03-31T22:33:26.234Z,93.90
2019-03-31T22:36:14.366Z,94.40
2019-03-31T22:38:44.650Z,94.20
2019-03-31T22:41:14.916Z,94.40
2019-03-31T22:43:45.200Z,94.50
2019-03-31T22:46:15.533Z,94.60
2019-03-31T22:48:45.893Z,94.60
2019-03-31T22:51:16.230Z,94.60
2019-03-31T22:53:46.849Z,94.70
2019-03-31T22:56:17.135Z,94.70
2019-03-31T22:58:48.062Z,94.90
2019-03-31T23:01:18.657Z,94.90
2019-03-31T23:03:48.936Z,95.00
2019-03-31T23:06:19.505Z,95.00
2019-03-31T23:08:49.757Z,95.10
2019-03-31T23:11:20.305Z,95.30
2019-03-31T23:13:50.581Z,95.40
2019-03-31T23:16:20.859Z,95.30
2019-03-31T23:18:51.144Z,95.40
2019-03-31T23:21:21.748Z,95.50
2019-03-31T23:23:52.022Z,95.80
2019-03-31T23:26:22.292Z,95.70
2019-03-31T23:28:52.582Z,95.70
2019-03-31T23:31:22.846Z,95.80
2019-03-31T23:33:53.125Z,95.60
2019-03-31T23:36:23.397Z,95.80
2019-03-31T23:38:53.678Z,95.60
2019-03-31T23:41:25.072Z,95.70
2019-03-31T23:43:55.354Z,95.70
2019-03-31T23:46:25.628Z,95.80
2019-03-31T23:48:55.979Z,95.60
2019-03-31T23:51:26.161Z,95.60
2019-03-31T23:53:56.463Z,95.80
2019-03-31T23:56:26.731Z,95.90
2019-03-31T23:58:57.012Z,95.90
